AirNav   Air Wisconsin Up To $57,000 Bonus
 
 1060 users online  

7CO5 Saddle Rock ER Heliport
Aurora, Colorado, USA

GOING TO AURORA?


FAA INFORMATION EFFECTIVE 08 SEPTEMBER 2022

Location

FAA Identifier: 7CO5
Lat/Long: 39-34-45.0000N 104-43-32.3600W
39-34.750000N 104-43.539333W
39.5791667,-104.7256556
(estimated)
Elevation: 5982 ft. / 1823 m (estimated)
From city: 12 miles SSE of AURORA, CO
Time zone: UTC -6 (UTC -7 during Standard Time)
Zip code: 80016

Heliport Operations

Heliport use: Private use. Permission required prior to landing
Activation date: 12/2015
Control tower: no
ARTCC: DENVER CENTER
FSS: DENVER FLIGHT SERVICE STATION
Attendance: CONTINUOUS
Wind indicator: yes
Segmented circle: no

Heliport Communications

WX ASOS at APA (6 nm W): PHONE 720-873-2799
WX AWOS-3 at CFO (15 nm NE): 119.025 (303-261-9104)
WX ASOS at DEN (17 nm N): PHONE 303-342-1920

Nearby radio navigation aids

VOR radial/distance  VOR name  Freq  Var
FQFr205/8.2FALCON VORTAC116.3011E
DENr184/14.3DENVER VOR/DME117.9008E
DVVr186/19.5MILE HIGH VORTAC114.7008E
BJCr125/27.7JEFFCO VOR/DME115.4011E
BRKr346/38.3BLACK FOREST VOR/DME112.5008E

Heliport Services

Runway Information

Helipad H1

Dimensions: 63 x 63 ft. / 19 x 19 m
Surface: concrete
Traffic pattern: leftleft

Heliport Ownership and Management from official FAA records

Ownership: Privately-owned
Owner: MEDICAL CENTER OF AURORA HEALTH ONE
MEDICAL CENTER OF AURORA, 1501 S POTOMAC STREET
AURORA, CO 80012
Phone 303-695-2773
Manager: RYAN SIMPSON
MEDICAL CENTER OF AURORA, 1501 S POTOMAC STREET
AURORA, CO 80012
Phone 303-695-2773

Additional Remarks

THE LDGS ARE ONLY FOR MED TRANSPORT BY HEL.
FOR CD CTC DENVER APCH AT 303-342-1916.

Instrument Procedures

There are no published instrument procedures at 7CO5.

Some nearby airports with instrument procedures:

KAPA - Centennial Airport (6 nm W)
KBKF - Buckley Space Force Base (7 nm N)
KCFO - Colorado Air and Space Port Airport (15 nm NE)
KDEN - Denver International Airport (17 nm N)
KBJC - Rocky Mountain Metro Airport (27 nm NW)
 
Loc | Ops | Rwys | IFR | FBO | Links
Com | Nav | Svcs | Stats | Notes

AirBoss

 
Aerial photo
No photo
 
Airport distance calculator
Flying to Saddle Rock ER Heliport? Find the distance to fly.

From to 7CO5

Sunrise and sunset
Times for 24-Sep-2022
 Local
(UTC-6)
 Zulu
(UTC)
Morning civil twilight06:2312:23
Sunrise06:4912:49
Sunset18:5200:52
Evening civil twilight19:1901:19

Current date and time
Zulu (UTC)  24-Sep-2022 22:45:31
Local (UTC-6)  24-Sep-2022 16:45:31
 
METAR
KAPA 
6nm W 
242153Z 03008KT 10SM CLR 26/M04 A3020 RMK AO2 SLP173 T02611044
KBKF 
8nm N 
242158Z 01008KT 10SM FEW100 28/M04 A3019 RMK AO2A SLP157 T02761044
KCFO 
15nm NE 
242047Z 34006KT 10SM SKC 29/M09 A3020
KDEN 
16nm N 
242153Z VRB05KT 10SM FEW100 27/M05 A3018 RMK AO2 SLP148 T02671050
TAF
KAPA 
6nm W 
241740Z 2418/2518 VRB05KT P6SM FEW100 FEW220 FM242200 08006KT P6SM FEW220 FM250700 01006KT P6SM FEW220 FM251100 19006KT P6SM SKC FM251700 04006KT P6SM SKC
KBKF 
8nm N 
241700Z 2417/2523 VRB06KT 9999 SKC 510023 QNH3021INS TX24/2422Z TN07/2512Z
KDEN 
16nm N 
242032Z 2421/2524 01009KT P6SM FEW100 FEW220 FM242230 04010KT P6SM FEW100 FEW220 FM250000 09006KT P6SM FEW220 FM250600 01006KT P6SM FEW220 FM251000 20006KT P6SM SKC FM251700 02007KT P6SM SKC FM252000 07007KT P6SM FEW120
NOTAMs
Click for the latest NOTAMs
NOTAMs are issued by the DoD/FAA and will open in a separate window not controlled by AirNav.

 

 
 

Would you like to see your business listed on this page?

 If your business provides an interesting product or service to pilots, flight crews, aircraft, or users of the Saddle Rock ER Heliport, you should consider listing it here.  To start the listing process, click on the button below
 
Add a business
 

Other Pages about Saddle Rock ER Heliport

Update a link
 
Copyright © AirNav, LLC. All rights reserved. Privacy Policy  Contact